createdAt,value
2023-02-03T00:00:20.534Z,80.50
2023-02-03T00:02:48.978Z,80.40
2023-02-03T00:05:18.930Z,80.60
2023-02-03T00:07:47.055Z,80.50
2023-02-03T00:10:16.400Z,80.40
2023-02-03T00:12:44.497Z,80.30
2023-02-03T00:15:12.652Z,80.10
2023-02-03T00:17:40.697Z,80.10
2023-02-03T00:20:09.258Z,80.20
2023-02-03T00:22:38.847Z,80.30
2023-02-03T00:25:07.383Z,80.40
2023-02-03T00:27:35.535Z,80.50
2023-02-03T00:30:03.987Z,80.60
2023-02-03T00:32:32.261Z,80.70
2023-02-03T00:35:00.448Z,80.90
2023-02-03T00:37:29.268Z,80.90
2023-02-03T00:39:59.102Z,80.90
2023-02-03T00:42:27.773Z,80.90
2023-02-03T00:44:55.894Z,80.90
2023-02-03T00:47:24.360Z,80.80
2023-02-03T00:49:52.692Z,80.70
2023-02-03T00:52:21.186Z,80.70
2023-02-03T00:54:53.312Z,80.60
2023-02-03T00:57:23.256Z,80.60
2023-02-03T00:59:51.760Z,80.60
2023-02-03T01:02:20.060Z,80.60
2023-02-03T01:04:48.105Z,80.50
2023-02-03T01:07:16.531Z,80.60
2023-02-03T01:09:44.973Z,80.60
2023-02-03T01:12:13.145Z,80.70
2023-02-03T01:14:44.031Z,80.90
2023-02-03T01:17:12.813Z,81.10
2023-02-03T01:19:40.902Z,81.30
2023-02-03T01:22:08.942Z,81.40
2023-02-03T01:24:39.081Z,81.60
2023-02-03T01:27:07.322Z,81.50
2023-02-03T01:29:35.670Z,81.30
2023-02-03T01:32:05.493Z,81.20
2023-02-03T01:34:33.741Z,81.00
2023-02-03T01:37:01.838Z,81.00
2023-02-03T01:39:29.787Z,81.00
2023-02-03T01:41:57.948Z,80.90
2023-02-03T01:44:45.253Z,80.90
2023-02-03T01:47:17.309Z,80.90
2023-02-03T01:49:48.221Z,80.80
2023-02-03T01:52:16.389Z,80.70
2023-02-03T01:54:45.434Z,80.70
2023-02-03T01:57:16.063Z,80.60
2023-02-03T01:59:45.304Z,80.60
2023-02-03T02:02:14.016Z,80.60
2023-02-03T02:04:51.772Z,80.60
2023-02-03T02:07:19.811Z,80.70
2023-02-03T02:09:47.913Z,80.50
2023-02-03T02:12:16.089Z,80.50
2023-02-03T02:14:44.309Z,80.40
2023-02-03T02:17:14.917Z,80.40
2023-02-03T02:19:53.837Z,80.30
2023-02-03T02:22:23.723Z,80.30
2023-02-03T02:25:03.674Z,80.30
2023-02-03T02:27:53.888Z,80.30
2023-02-03T02:30:33.655Z,80.30
2023-02-03T02:33:05.421Z,80.40
2023-02-03T02:35:36.885Z,80.40
2023-02-03T02:38:06.086Z,80.30
2023-02-03T02:40:37.697Z,80.20
2023-02-03T02:43:10.818Z,80.20
2023-02-03T02:45:43.087Z,80.10
2023-02-03T02:48:14.721Z,80.00
2023-02-03T02:50:44.169Z,80.00
2023-02-03T02:53:12.852Z,79.90
2023-02-03T02:55:43.285Z,80.10
2023-02-03T02:58:13.524Z,80.20
2023-02-03T03:00:41.923Z,80.30
2023-02-03T03:03:18.607Z,80.40
2023-02-03T03:05:49.884Z,80.50
2023-02-03T03:08:22.758Z,80.60
2023-02-03T03:10:51.625Z,80.60
2023-02-03T03:13:23.604Z,80.70
2023-02-03T03:15:53.176Z,80.90
2023-02-03T03:18:24.682Z,81.30
2023-02-03T03:20:54.333Z,81.60
2023-02-03T03:23:25.639Z,81.60
2023-02-03T03:25:55.999Z,81.80
2023-02-03T03:28:26.725Z,81.90
2023-02-03T03:30:55.047Z,81.90
2023-02-03T03:33:24.754Z,81.80
2023-02-03T03:35:56.029Z,81.70
2023-02-03T03:38:25.768Z,81.70
2023-02-03T03:40:56.337Z,81.60
2023-02-03T03:43:26.694Z,81.60
2023-02-03T03:45:56.821Z,81.60
2023-02-03T03:48:29.400Z,81.40
2023-02-03T03:50:58.974Z,81.40
2023-02-03T03:53:29.022Z,81.40
2023-02-03T03:55:58.036Z,81.40
2023-02-03T03:58:27.421Z,81.40
2023-02-03T04:00:56.439Z,81.40
2023-02-03T04:03:25.731Z,81.40
2023-02-03T04:05:56.130Z,81.30
2023-02-03T04:08:24.048Z,81.20
2023-02-03T04:10:51.963Z,81.20
2023-02-03T04:13:20.711Z,81.20
2023-02-03T04:15:48.748Z,81.00
2023-02-03T04:18:16.865Z,80.90
2023-02-03T04:20:44.846Z,80.90
2023-02-03T04:23:14.145Z,81.00
2023-02-03T04:25:42.071Z,81.00
2023-02-03T04:28:10.492Z,80.90
2023-02-03T04:30:38.384Z,80.90
2023-02-03T04:33:09.272Z,80.80
2023-02-03T04:35:37.702Z,80.70
2023-02-03T04:38:05.560Z,80.60
2023-02-03T04:40:35.241Z,80.50
2023-02-03T04:43:06.894Z,80.40
2023-02-03T04:45:34.804Z,80.30
2023-02-03T04:48:04.604Z,80.20
2023-02-03T04:50:32.675Z,80.30
2023-02-03T04:53:01.234Z,80.20
2023-02-03T04:55:29.250Z,80.20
2023-02-03T04:57:58.935Z,80.10
2023-02-03T05:00:27.493Z,80.00
2023-02-03T05:02:55.824Z,80.00
2023-02-03T05:05:23.780Z,79.90
2023-02-03T05:07:51.790Z,80.00
2023-02-03T05:10:19.669Z,80.10
2023-02-03T05:12:47.625Z,80.20
2023-02-03T05:15:17.228Z,80.30
2023-02-03T05:17:45.168Z,80.50
2023-02-03T05:20:13.209Z,80.60
2023-02-03T05:22:41.148Z,80.70
2023-02-03T05:25:10.493Z,80.70
2023-02-03T05:27:39.245Z,80.70
2023-02-03T05:30:07.765Z,80.70
2023-02-03T05:32:37.138Z,80.70
2023-02-03T05:35:05.126Z,80.70
2023-02-03T05:37:33.038Z,80.60
2023-02-03T05:42:55.662Z,80.60
2023-02-03T05:45:24.257Z,80.60
2023-02-03T05:47:52.312Z,80.60
2023-02-03T05:50:22.891Z,80.60
2023-02-03T05:52:53.033Z,80.60
2023-02-03T05:55:21.401Z,80.70
2023-02-03T05:57:49.331Z,80.90
2023-02-03T06:00:21.391Z,81.00
2023-02-03T06:02:52.337Z,81.00
2023-02-03T06:05:20.843Z,81.00
2023-02-03T06:07:49.835Z,80.90
2023-02-03T06:10:19.000Z,80.90
2023-02-03T06:12:47.959Z,81.10
2023-02-03T06:15:16.484Z,81.10
2023-02-03T06:17:48.737Z,81.10
2023-02-03T06:20:18.911Z,81.20
2023-02-03T06:22:47.414Z,81.20
2023-02-03T06:25:15.906Z,81.30
2023-02-03T06:27:44.396Z,81.20
2023-02-03T06:30:13.171Z,81.30
2023-02-03T06:32:41.265Z,81.30
2023-02-03T06:35:11.446Z,81.40
2023-02-03T06:37:39.869Z,81.50
2023-02-03T06:40:08.714Z,81.60
2023-02-03T06:42:36.773Z,81.60
2023-02-03T06:45:05.196Z,81.60
2023-02-03T06:47:33.222Z,81.50
2023-02-03T06:50:01.273Z,81.40
2023-02-03T06:52:30.948Z,81.30
2023-02-03T06:54:59.143Z,81.20
2023-02-03T06:57:27.351Z,81.20
2023-02-03T06:59:55.637Z,81.20
2023-02-03T07:02:23.946Z,81.10
2023-02-03T07:04:53.907Z,81.00
2023-02-03T07:07:22.193Z,80.80
2023-02-03T07:09:51.830Z,80.60
2023-02-03T07:12:19.972Z,80.50
2023-02-03T07:14:48.257Z,80.40
2023-02-03T07:17:16.192Z,80.30
2023-02-03T07:19:46.051Z,80.30
2023-02-03T07:22:16.256Z,80.20
2023-02-03T07:24:44.459Z,80.10
2023-02-03T07:27:15.952Z,80.10
2023-02-03T07:29:44.534Z,79.90
2023-02-03T07:32:13.114Z,79.90
2023-02-03T07:34:41.274Z,79.90
2023-02-03T07:37:09.301Z,79.90
2023-02-03T07:39:37.410Z,80.00
2023-02-03T07:42:05.716Z,80.10
2023-02-03T07:44:40.479Z,80.10
2023-02-03T07:47:08.549Z,80.10
2023-02-03T07:49:36.899Z,80.20
2023-02-03T07:52:05.523Z,80.30
2023-02-03T07:54:34.029Z,80.20
2023-02-03T07:57:02.283Z,80.20
2023-02-03T07:59:31.347Z,80.10
2023-02-03T08:02:01.081Z,80.00
2023-02-03T08:04:29.241Z,80.10
2023-02-03T08:06:57.786Z,80.10
2023-02-03T08:09:26.064Z,80.00
2023-02-03T08:11:54.579Z,79.90
2023-02-03T08:14:22.904Z,79.80
2023-02-03T08:16:58.480Z,79.70
2023-02-03T08:19:29.563Z,79.80
2023-02-03T08:21:59.586Z,79.50
2023-02-03T08:24:27.654Z,79.30
2023-02-03T08:26:55.787Z,79.30
2023-02-03T08:29:23.937Z,79.20
2023-02-03T08:31:52.307Z,79.30
2023-02-03T08:34:20.652Z,79.20
2023-02-03T08:36:50.588Z,79.30
2023-02-03T08:39:18.862Z,79.00
2023-02-03T08:41:47.007Z,79.00
2023-02-03T08:44:16.556Z,79.00
2023-02-03T08:46:45.377Z,78.70
2023-02-03T08:49:15.366Z,78.60
2023-02-03T08:51:46.221Z,78.50
2023-02-03T08:54:16.804Z,78.40
2023-02-03T08:56:48.787Z,78.40
2023-02-03T08:59:16.751Z,78.40
2023-02-03T09:01:46.998Z,78.10
2023-02-03T09:04:18.550Z,78.10
2023-02-03T09:06:47.990Z,77.90
2023-02-03T09:09:17.906Z,77.80
2023-02-03T09:11:46.203Z,77.50
2023-02-03T09:14:14.178Z,77.50
2023-02-03T09:16:44.439Z,77.50
2023-02-03T09:19:13.802Z,77.40
2023-02-03T09:21:47.202Z,77.40
2023-02-03T09:24:20.093Z,77.50
2023-02-03T09:26:50.093Z,77.70
2023-02-03T09:29:20.171Z,77.70
2023-02-03T09:31:52.682Z,77.70
2023-02-03T09:34:23.606Z,77.60
2023-02-03T09:36:52.648Z,77.50
2023-02-03T09:39:22.912Z,77.20
2023-02-03T09:42:02.617Z,77.00
2023-02-03T09:44:35.214Z,77.10
2023-02-03T09:47:08.173Z,76.60
2023-02-03T09:49:39.836Z,76.50
2023-02-03T09:52:11.673Z,76.30
2023-02-03T09:54:45.781Z,76.40
2023-02-03T09:57:15.938Z,76.00
2023-02-03T09:59:45.779Z,76.10
2023-02-03T10:02:22.101Z,75.80
2023-02-03T10:04:54.204Z,76.10
2023-02-03T10:07:26.695Z,76.10
2023-02-03T10:10:03.348Z,75.70
2023-02-03T10:12:49.757Z,75.90
2023-02-03T10:15:33.357Z,75.80
2023-02-03T10:18:05.608Z,75.80
2023-02-03T10:20:37.019Z,75.70
2023-02-03T10:23:08.143Z,75.40
2023-02-03T10:25:40.931Z,75.40
2023-02-03T10:28:11.864Z,75.50
2023-02-03T10:30:45.824Z,75.30
2023-02-03T10:33:16.393Z,75.30
2023-02-03T10:35:49.064Z,75.30
2023-02-03T10:38:23.359Z,75.40
2023-02-03T10:40:53.704Z,75.00
2023-02-03T10:43:39.929Z,74.70
2023-02-03T10:46:08.135Z,75.10
2023-02-03T10:48:37.369Z,74.90
2023-02-03T10:51:05.671Z,75.10
2023-02-03T10:53:35.242Z,74.90
2023-02-03T10:56:06.863Z,74.80
2023-02-03T10:58:36.269Z,75.20
2023-02-03T11:01:10.498Z,75.00
2023-02-03T11:03:39.447Z,74.90
2023-02-03T11:06:09.146Z,75.10
2023-02-03T11:08:38.539Z,74.70
2023-02-03T11:11:09.426Z,74.70
2023-02-03T11:13:37.578Z,74.80
2023-02-03T11:16:07.514Z,74.70
2023-02-03T11:18:44.732Z,74.80
2023-02-03T11:21:18.297Z,74.80
2023-02-03T11:23:49.174Z,74.50
2023-02-03T11:26:20.484Z,74.60
2023-02-03T11:28:50.528Z,74.20
2023-02-03T11:31:21.284Z,74.20
2023-02-03T11:33:50.373Z,73.90
2023-02-03T11:36:18.976Z,73.80
2023-02-03T11:38:47.514Z,73.80
2023-02-03T11:41:23.867Z,73.70
2023-02-03T11:43:57.935Z,73.90
2023-02-03T11:46:26.235Z,73.90
2023-02-03T11:49:01.966Z,73.80
2023-02-03T11:51:35.440Z,73.90
2023-02-03T11:54:13.857Z,73.70
2023-02-03T11:56:55.203Z,73.90
2023-02-03T11:59:38.989Z,73.50
2023-02-03T12:02:34.877Z,73.80
2023-02-03T12:05:17.500Z,73.90
2023-02-03T12:07:52.004Z,74.20
2023-02-03T12:10:28.934Z,74.50
2023-02-03T12:13:02.343Z,74.30
2023-02-03T12:15:52.497Z,74.60
2023-02-03T12:18:35.998Z,74.70
2023-02-03T12:21:14.318Z,75.10
2023-02-03T12:23:50.667Z,75.00
2023-02-03T12:26:26.676Z,75.20
2023-02-03T12:29:01.698Z,75.10
2023-02-03T12:31:36.989Z,75.10
2023-02-03T12:34:11.298Z,75.00
2023-02-03T12:36:41.923Z,74.60
2023-02-03T12:39:15.670Z,74.60
2023-02-03T12:41:47.112Z,74.30
2023-02-03T12:44:21.004Z,74.50
2023-02-03T12:46:52.130Z,74.30
2023-02-03T12:49:28.597Z,74.70
2023-02-03T12:52:00.137Z,74.70
2023-02-03T12:54:34.472Z,74.90
2023-02-03T12:57:08.891Z,75.30
2023-02-03T12:59:41.086Z,75.50
2023-02-03T13:02:14.985Z,75.50
2023-02-03T13:04:45.983Z,75.80
2023-02-03T13:07:18.450Z,75.70
2023-02-03T13:09:50.982Z,75.80
2023-02-03T13:12:26.640Z,76.10
2023-02-03T13:14:59.188Z,76.50
2023-02-03T13:17:29.993Z,76.70
2023-02-03T13:20:00.678Z,77.10
2023-02-03T13:22:28.975Z,76.90
2023-02-03T13:24:58.162Z,77.10
2023-02-03T13:27:39.173Z,77.40
2023-02-03T13:30:22.742Z,77.70
2023-02-03T13:33:05.279Z,78.10
2023-02-03T13:35:41.090Z,78.60
2023-02-03T13:38:23.950Z,78.60
2023-02-03T13:40:57.910Z,78.60
2023-02-03T13:43:38.357Z,78.50
2023-02-03T13:46:14.202Z,78.50
2023-02-03T13:48:46.582Z,78.60
2023-02-03T13:51:16.160Z,78.50
2023-02-03T13:53:47.952Z,78.50
2023-02-03T13:56:21.453Z,78.70
2023-02-03T13:59:06.172Z,78.90
2023-02-03T14:01:39.236Z,79.00
2023-02-03T14:04:08.983Z,79.20
2023-02-03T14:07:00.875Z,79.70
2023-02-03T14:09:38.439Z,79.90
2023-02-03T14:12:33.966Z,80.10
2023-02-03T14:15:06.855Z,80.20
2023-02-03T14:18:07.163Z,80.30
2023-02-03T14:20:43.407Z,80.60
2023-02-03T14:23:14.856Z,80.80
2023-02-03T14:25:44.914Z,81.00
2023-02-03T14:28:15.190Z,81.50
2023-02-03T14:31:03.023Z,81.70
2023-02-03T14:33:47.088Z,81.90
2023-02-03T14:36:33.949Z,82.00
2023-02-03T14:39:07.489Z,82.10
2023-02-03T14:41:45.079Z,82.10
2023-02-03T14:44:20.117Z,82.10
2023-02-03T14:46:59.340Z,82.10
2023-02-03T14:49:33.005Z,82.30
2023-02-03T14:52:09.885Z,82.50
2023-02-03T14:54:53.074Z,82.50
2023-02-03T14:57:29.420Z,82.60
2023-02-03T15:00:00.554Z,82.90
2023-02-03T15:02:31.476Z,82.80
2023-02-03T15:05:20.641Z,82.90
2023-02-03T15:07:49.686Z,82.90
2023-02-03T15:10:18.961Z,83.10
2023-02-03T15:12:53.167Z,83.10
2023-02-03T15:15:23.129Z,83.10
2023-02-03T15:17:52.779Z,83.30
2023-02-03T15:20:36.141Z,83.10
2023-02-03T15:23:05.105Z,83.30
2023-02-03T15:25:35.091Z,83.30
2023-02-03T15:28:24.544Z,83.10
2023-02-03T15:30:56.601Z,83.20
2023-02-03T15:33:28.947Z,83.20
2023-02-03T15:36:07.463Z,83.30
2023-02-03T15:38:37.765Z,83.30
2023-02-03T15:41:08.195Z,83.10
2023-02-03T15:43:40.292Z,83.10
2023-02-03T15:46:13.253Z,82.80
2023-02-03T15:48:43.495Z,83.10
2023-02-03T15:51:13.840Z,83.10
2023-02-03T15:53:48.003Z,83.20
2023-02-03T15:56:21.849Z,83.10
2023-02-03T15:58:51.869Z,83.10
2023-02-03T16:01:23.306Z,83.20
2023-02-03T16:03:53.879Z,83.20
2023-02-03T16:06:27.525Z,83.30
2023-02-03T16:08:56.050Z,83.30
2023-02-03T16:11:25.472Z,83.40
2023-02-03T16:13:56.873Z,83.40
2023-02-03T16:16:31.132Z,83.40
2023-02-03T16:19:05.546Z,83.40
2023-02-03T16:21:35.984Z,83.30
2023-02-03T16:24:05.447Z,83.40
2023-02-03T16:26:37.038Z,83.40
2023-02-03T16:29:33.918Z,83.40
2023-02-03T16:32:20.022Z,83.50
2023-02-03T16:35:05.578Z,83.50
2023-02-03T16:37:54.363Z,83.50
2023-02-03T16:40:41.254Z,83.70
2023-02-03T16:43:30.212Z,83.70
2023-02-03T16:46:18.344Z,83.70
2023-02-03T16:49:04.381Z,83.70
2023-02-03T16:51:39.892Z,83.80
2023-02-03T16:54:09.789Z,83.80
2023-02-03T16:56:38.087Z,83.30
2023-02-03T16:59:07.659Z,83.30
2023-02-03T17:01:37.498Z,83.30
2023-02-03T17:04:06.423Z,83.30
2023-02-03T17:06:34.858Z,83.30
2023-02-03T17:09:04.217Z,83.30
2023-02-03T17:11:33.455Z,83.30
2023-02-03T17:14:02.031Z,83.30
2023-02-03T17:16:30.753Z,83.30
2023-02-03T17:19:00.684Z,83.30
2023-02-03T17:21:31.046Z,83.30
2023-02-03T17:24:03.476Z,83.20
2023-02-03T17:26:32.087Z,83.20
2023-02-03T17:29:03.611Z,83.30
2023-02-03T17:31:33.250Z,83.30
2023-02-03T17:34:03.692Z,83.30
2023-02-03T17:36:32.439Z,83.30
2023-02-03T17:55:31.854Z,83.10
2023-02-03T17:58:00.538Z,83.10
2023-02-03T18:00:29.490Z,83.10
2023-02-03T18:02:59.199Z,83.00
2023-02-03T18:05:29.808Z,83.10
2023-02-03T18:08:03.041Z,83.10
2023-02-03T18:10:37.906Z,83.10
2023-02-03T18:13:06.296Z,82.90
2023-02-03T18:15:37.837Z,82.90
2023-02-03T18:18:06.715Z,82.90
2023-02-03T18:20:37.032Z,82.90
2023-02-03T18:23:05.457Z,82.90
2023-02-03T18:25:36.393Z,83.10
2023-02-03T18:28:15.659Z,83.10
2023-02-03T18:30:45.158Z,83.10
2023-02-03T18:33:16.651Z,83.30
2023-02-03T18:35:46.061Z,83.40
2023-02-03T18:38:15.978Z,83.50
2023-02-03T18:40:45.375Z,83.50
2023-02-03T18:43:15.360Z,83.60
2023-02-03T18:45:43.858Z,83.60
2023-02-03T18:48:11.916Z,83.70
2023-02-03T18:50:41.874Z,83.70
2023-02-03T18:53:12.269Z,83.80
2023-02-03T18:55:42.576Z,83.80
2023-02-03T18:58:12.127Z,83.70
2023-02-03T19:00:42.230Z,83.70
2023-02-03T19:03:10.868Z,83.70
2023-02-03T19:05:41.782Z,83.60
2023-02-03T19:08:11.496Z,83.50
2023-02-03T19:10:39.684Z,83.40
2023-02-03T19:13:13.353Z,83.40
2023-02-03T19:15:43.121Z,83.40
2023-02-03T19:18:11.575Z,83.40
2023-02-03T19:20:40.111Z,83.40
2023-02-03T19:23:12.034Z,83.40
2023-02-03T19:25:40.811Z,83.50
2023-02-03T19:28:17.473Z,83.50
2023-02-03T19:30:55.179Z,83.30
2023-02-03T19:33:32.443Z,83.30
2023-02-03T19:36:00.442Z,83.20
2023-02-03T19:38:30.524Z,83.70
2023-02-03T19:40:59.002Z,83.50
2023-02-03T19:43:28.743Z,83.40
2023-02-03T19:45:56.793Z,83.40
2023-02-03T19:48:25.114Z,83.40
2023-02-03T19:50:56.626Z,83.40
2023-02-03T19:53:27.631Z,83.50
2023-02-03T19:55:57.100Z,83.60
2023-02-03T19:58:25.587Z,83.60
2023-02-03T20:00:56.291Z,83.60
2023-02-03T20:03:27.934Z,83.50
2023-02-03T20:05:56.898Z,83.40
2023-02-03T20:08:25.920Z,83.40
2023-02-03T20:10:55.855Z,83.40
2023-02-03T20:13:29.292Z,83.40
2023-02-03T20:15:57.621Z,83.40
2023-02-03T20:18:26.070Z,83.20
2023-02-03T20:20:55.323Z,83.00
2023-02-03T20:23:24.897Z,82.90
2023-02-03T20:25:54.689Z,82.90
2023-02-03T20:28:24.498Z,82.80
2023-02-03T20:30:56.135Z,82.70
2023-02-03T20:33:27.343Z,82.70
2023-02-03T20:35:56.227Z,82.50
2023-02-03T20:38:25.304Z,82.50
2023-02-03T20:40:55.797Z,82.40
2023-02-03T20:43:26.435Z,82.50
2023-02-03T20:45:56.622Z,82.40
2023-02-03T20:48:26.884Z,82.40
2023-02-03T20:50:55.695Z,82.00
2023-02-03T20:53:26.344Z,81.80
2023-02-03T20:55:58.645Z,81.70
2023-02-03T20:58:28.638Z,82.00
2023-02-03T21:00:58.551Z,81.40
2023-02-03T21:03:45.167Z,81.50
2023-02-03T21:06:15.322Z,81.40
2023-02-03T21:08:44.584Z,81.30
2023-02-03T21:11:14.682Z,81.20
2023-02-03T21:13:45.745Z,81.00
2023-02-03T21:16:19.413Z,80.50
2023-02-03T21:18:52.921Z,80.80
2023-02-03T21:21:25.614Z,80.70
2023-02-03T21:23:54.510Z,80.60
2023-02-03T21:26:24.155Z,80.80
2023-02-03T21:28:55.121Z,80.60
2023-02-03T21:31:38.874Z,80.40
2023-02-03T21:34:16.090Z,80.30
2023-02-03T21:36:44.727Z,80.20
2023-02-03T21:39:27.155Z,80.20
2023-02-03T21:41:55.845Z,80.20
2023-02-03T21:44:30.789Z,80.30
2023-02-03T21:47:04.778Z,80.60
2023-02-03T21:49:33.843Z,80.30
2023-02-03T21:52:02.067Z,80.10
2023-02-03T21:54:31.340Z,80.20
2023-02-03T21:57:01.808Z,80.40
2023-02-03T21:59:38.898Z,80.30
2023-02-03T22:02:24.290Z,80.10
2023-02-03T22:05:03.724Z,80.20
2023-02-03T22:07:33.237Z,80.50
2023-02-03T22:10:01.261Z,80.20
2023-02-03T22:12:30.616Z,80.20
2023-02-03T22:15:02.459Z,79.90
2023-02-03T22:17:30.793Z,80.00
2023-02-03T22:19:59.987Z,79.80
2023-02-03T22:22:32.553Z,79.50
2023-02-03T22:25:00.658Z,79.40
2023-02-03T22:27:33.412Z,79.10
2023-02-03T22:30:05.680Z,79.40
2023-02-03T22:32:34.463Z,79.20
2023-02-03T22:38:06.615Z,79.10
2023-02-03T22:40:34.935Z,78.40
2023-02-03T22:43:03.683Z,78.50
2023-02-03T22:45:32.341Z,78.30
2023-02-03T22:48:00.982Z,77.90
2023-02-03T22:50:35.397Z,78.10
2023-02-03T22:53:07.170Z,77.70
2023-02-03T22:55:35.635Z,77.90
2023-02-03T22:58:04.032Z,77.50
2023-02-03T23:00:33.135Z,77.10
2023-02-03T23:03:01.665Z,77.40
2023-02-03T23:05:32.022Z,77.30
2023-02-03T23:08:00.439Z,77.20
2023-02-03T23:10:32.042Z,77.30
2023-02-03T23:13:01.684Z,77.50
2023-02-03T23:15:32.164Z,77.50
2023-02-03T23:18:00.691Z,77.70
2023-02-03T23:20:29.551Z,77.00
2023-02-03T23:22:58.086Z,76.50
2023-02-03T23:25:26.384Z,76.40
2023-02-03T23:27:56.170Z,76.20
2023-02-03T23:30:24.900Z,76.10
2023-02-03T23:32:52.959Z,76.60
2023-02-03T23:35:38.176Z,76.50
2023-02-03T23:38:07.047Z,76.90
2023-02-03T23:40:35.665Z,76.30
2023-02-03T23:43:05.545Z,76.50
2023-02-03T23:45:34.230Z,76.30
2023-02-03T23:48:02.706Z,75.80
2023-02-03T23:50:31.199Z,76.40
2023-02-03T23:52:59.454Z,76.90
2023-02-03T23:55:30.616Z,76.00
2023-02-03T23:57:59.559Z,75.90
